sensor_id;sensor_type;location;lat;lon;timestamp;temperature;humidity
37002;DHT22;22913;51.910;8.374;2023-04-01T00:01:26;10.00;99.90
37002;DHT22;22913;51.910;8.374;2023-04-01T00:04:13;10.00;99.90
37002;DHT22;22913;51.910;8.374;2023-04-01T00:06:59;9.90;99.90
37002;DHT22;22913;51.910;8.374;2023-04-01T00:09:46;9.90;99.90
37002;DHT22;22913;51.910;8.374;2023-04-01T00:12:31;10.00;99.90
37002;DHT22;22913;51.910;8.374;2023-04-01T00:15:17;10.00;99.90
37002;DHT22;22913;51.910;8.374;2023-04-01T00:18:03;10.00;99.90
37002;DHT22;22913;51.910;8.374;2023-04-01T00:20:51;10.00;99.90
37002;DHT22;22913;51.910;8.374;2023-04-01T00:23:36;10.00;99.90
37002;DHT22;22913;51.910;8.374;2023-04-01T00:26:22;10.00;99.90
37002;DHT22;22913;51.910;8.374;2023-04-01T00:29:08;10.00;99.90
37002;DHT22;22913;51.910;8.374;2023-04-01T00:31:55;10.10;99.90
37002;DHT22;22913;51.910;8.374;2023-04-01T00:34:40;10.10;99.90
37002;DHT22;22913;51.910;8.374;2023-04-01T00:37:28;10.10;99.90
37002;DHT22;22913;51.910;8.374;2023-04-01T00:40:23;10.10;99.90
37002;DHT22;22913;51.910;8.374;2023-04-01T00:43:12;10.10;99.90
37002;DHT22;22913;51.910;8.374;2023-04-01T00:45:58;10.10;99.90
37002;DHT22;22913;51.910;8.374;2023-04-01T00:48:47;10.10;99.90
37002;DHT22;22913;51.910;8.374;2023-04-01T00:51:34;10.20;99.90
37002;DHT22;22913;51.910;8.374;2023-04-01T00:54:25;10.20;99.90
37002;DHT22;22913;51.910;8.374;2023-04-01T00:57:14;10.20;99.90
37002;DHT22;22913;51.910;8.374;2023-04-01T01:00:03;10.20;99.90
37002;DHT22;22913;51.910;8.374;2023-04-01T01:02:51;10.10;99.90
37002;DHT22;22913;51.910;8.374;2023-04-01T01:05:56;10.10;99.90
37002;DHT22;22913;51.910;8.374;2023-04-01T01:09:09;10.10;99.90
37002;DHT22;22913;51.910;8.374;2023-04-01T01:12:04;10.10;99.90
37002;DHT22;22913;51.910;8.374;2023-04-01T01:14:57;10.10;99.90
37002;DHT22;22913;51.910;8.374;2023-04-01T01:17:52;10.10;99.90
37002;DHT22;22913;51.910;8.374;2023-04-01T01:20:53;10.10;99.90
37002;DHT22;22913;51.910;8.374;2023-04-01T01:27:10;10.10;99.90
37002;DHT22;22913;51.910;8.374;2023-04-01T01:30:08;10.10;99.90
37002;DHT22;22913;51.910;8.374;2023-04-01T01:33:09;10.00;99.90
37002;DHT22;22913;51.910;8.374;2023-04-01T01:36:01;10.10;99.90
37002;DHT22;22913;51.910;8.374;2023-04-01T01:38:51;9.90;99.90
37002;DHT22;22913;51.910;8.374;2023-04-01T01:41:37;9.90;99.90
37002;DHT22;22913;51.910;8.374;2023-04-01T01:44:26;9.90;99.90
37002;DHT22;22913;51.910;8.374;2023-04-01T01:47:11;9.90;99.90
37002;DHT22;22913;51.910;8.374;2023-04-01T01:49:59;9.90;99.90
37002;DHT22;22913;51.910;8.374;2023-04-01T01:52:46;9.90;99.90
37002;DHT22;22913;51.910;8.374;2023-04-01T01:55:33;9.90;99.90
37002;DHT22;22913;51.910;8.374;2023-04-01T01:58:22;9.90;99.90
37002;DHT22;22913;51.910;8.374;2023-04-01T02:01:13;9.90;99.90
37002;DHT22;22913;51.910;8.374;2023-04-01T02:03:59;9.80;99.90
37002;DHT22;22913;51.910;8.374;2023-04-01T02:06:49;9.80;99.90
37002;DHT22;22913;51.910;8.374;2023-04-01T02:09:38;9.80;99.90
37002;DHT22;22913;51.910;8.374;2023-04-01T02:12:25;9.80;99.90
37002;DHT22;22913;51.910;8.374;2023-04-01T02:15:13;9.80;99.90
37002;DHT22;22913;51.910;8.374;2023-04-01T02:17:59;9.80;99.90
37002;DHT22;22913;51.910;8.374;2023-04-01T02:20:46;9.80;99.90
37002;DHT22;22913;51.910;8.374;2023-04-01T02:23:33;9.80;99.90
37002;DHT22;22913;51.910;8.374;2023-04-01T02:26:21;9.80;99.90
37002;DHT22;22913;51.910;8.374;2023-04-01T02:29:09;9.80;99.90
37002;DHT22;22913;51.910;8.374;2023-04-01T02:31:57;9.70;99.90
37002;DHT22;22913;51.910;8.374;2023-04-01T02:34:44;9.70;99.90
37002;DHT22;22913;51.910;8.374;2023-04-01T02:37:29;9.70;99.90
37002;DHT22;22913;51.910;8.374;2023-04-01T02:40:15;9.80;99.90
37002;DHT22;22913;51.910;8.374;2023-04-01T02:43:02;9.80;99.90
37002;DHT22;22913;51.910;8.374;2023-04-01T02:45:48;9.80;99.90
37002;DHT22;22913;51.910;8.374;2023-04-01T02:48:34;9.80;99.90
37002;DHT22;22913;51.910;8.374;2023-04-01T02:51:19;9.80;99.90
37002;DHT22;22913;51.910;8.374;2023-04-01T02:54:05;9.90;99.90
37002;DHT22;22913;51.910;8.374;2023-04-01T02:56:50;9.90;99.90
37002;DHT22;22913;51.910;8.374;2023-04-01T02:59:37;9.80;99.90
37002;DHT22;22913;51.910;8.374;2023-04-01T03:02:22;9.90;99.90
37002;DHT22;22913;51.910;8.374;2023-04-01T03:05:08;9.90;99.90
37002;DHT22;22913;51.910;8.374;2023-04-01T03:07:54;9.90;99.90
37002;DHT22;22913;51.910;8.374;2023-04-01T03:10:40;9.90;99.90
37002;DHT22;22913;51.910;8.374;2023-04-01T03:13:25;9.90;99.90
37002;DHT22;22913;51.910;8.374;2023-04-01T03:16:13;9.80;99.90
37002;DHT22;22913;51.910;8.374;2023-04-01T03:18:59;9.80;99.90
37002;DHT22;22913;51.910;8.374;2023-04-01T03:21:46;9.80;99.90
37002;DHT22;22913;51.910;8.374;2023-04-01T03:24:31;9.80;99.90
37002;DHT22;22913;51.910;8.374;2023-04-01T03:27:17;9.80;99.90
37002;DHT22;22913;51.910;8.374;2023-04-01T03:30:04;9.80;99.90
37002;DHT22;22913;51.910;8.374;2023-04-01T03:32:51;9.80;99.90
37002;DHT22;22913;51.910;8.374;2023-04-01T03:35:36;9.70;99.90
37002;DHT22;22913;51.910;8.374;2023-04-01T03:38:22;9.70;99.90
37002;DHT22;22913;51.910;8.374;2023-04-01T03:41:11;9.70;99.90
37002;DHT22;22913;51.910;8.374;2023-04-01T03:43:57;9.70;99.90
37002;DHT22;22913;51.910;8.374;2023-04-01T03:46:42;9.70;99.90
37002;DHT22;22913;51.910;8.374;2023-04-01T03:49:30;9.70;99.90
37002;DHT22;22913;51.910;8.374;2023-04-01T03:52:16;9.70;99.90
37002;DHT22;22913;51.910;8.374;2023-04-01T03:55:02;9.70;99.90
37002;DHT22;22913;51.910;8.374;2023-04-01T03:57:47;9.70;99.90
37002;DHT22;22913;51.910;8.374;2023-04-01T04:00:33;9.70;99.90
37002;DHT22;22913;51.910;8.374;2023-04-01T04:03:19;9.70;99.90
37002;DHT22;22913;51.910;8.374;2023-04-01T04:06:10;9.60;99.90
37002;DHT22;22913;51.910;8.374;2023-04-01T04:08:56;9.60;99.90
37002;DHT22;22913;51.910;8.374;2023-04-01T04:11:42;9.60;99.90
37002;DHT22;22913;51.910;8.374;2023-04-01T04:14:27;9.70;99.90
37002;DHT22;22913;51.910;8.374;2023-04-01T04:17:13;9.70;99.90
37002;DHT22;22913;51.910;8.374;2023-04-01T04:20:00;9.70;99.90
37002;DHT22;22913;51.910;8.374;2023-04-01T04:22:47;9.70;99.90
37002;DHT22;22913;51.910;8.374;2023-04-01T04:25:32;9.60;99.90
37002;DHT22;22913;51.910;8.374;2023-04-01T04:28:18;9.60;99.90
37002;DHT22;22913;51.910;8.374;2023-04-01T04:31:04;9.60;99.90
37002;DHT22;22913;51.910;8.374;2023-04-01T04:33:50;9.60;99.90
37002;DHT22;22913;51.910;8.374;2023-04-01T04:36:36;9.50;99.90
37002;DHT22;22913;51.910;8.374;2023-04-01T04:39:23;9.50;99.90
37002;DHT22;22913;51.910;8.374;2023-04-01T04:42:08;9.50;99.90
37002;DHT22;22913;51.910;8.374;2023-04-01T04:44:54;9.40;99.90
37002;DHT22;22913;51.910;8.374;2023-04-01T04:47:40;9.50;99.90
37002;DHT22;22913;51.910;8.374;2023-04-01T04:50:25;9.40;99.90
37002;DHT22;22913;51.910;8.374;2023-04-01T04:53:11;9.50;99.90
37002;DHT22;22913;51.910;8.374;2023-04-01T04:55:58;9.50;99.90
37002;DHT22;22913;51.910;8.374;2023-04-01T04:58:44;9.50;99.90
37002;DHT22;22913;51.910;8.374;2023-04-01T05:01:29;9.40;99.90
37002;DHT22;22913;51.910;8.374;2023-04-01T05:04:15;9.30;99.90
37002;DHT22;22913;51.910;8.374;2023-04-01T05:07:01;9.30;99.90
37002;DHT22;22913;51.910;8.374;2023-04-01T05:09:46;9.30;99.90
37002;DHT22;22913;51.910;8.374;2023-04-01T05:12:33;9.30;99.90
37002;DHT22;22913;51.910;8.374;2023-04-01T05:15:21;9.30;99.90
37002;DHT22;22913;51.910;8.374;2023-04-01T05:18:06;9.30;99.90
37002;DHT22;22913;51.910;8.374;2023-04-01T05:20:54;9.30;99.90
37002;DHT22;22913;51.910;8.374;2023-04-01T05:23:39;9.40;99.90
37002;DHT22;22913;51.910;8.374;2023-04-01T05:26:25;9.40;99.90
37002;DHT22;22913;51.910;8.374;2023-04-01T05:29:12;9.40;99.90
37002;DHT22;22913;51.910;8.374;2023-04-01T05:31:58;9.40;99.90
37002;DHT22;22913;51.910;8.374;2023-04-01T05:34:44;9.50;99.90
37002;DHT22;22913;51.910;8.374;2023-04-01T05:37:29;9.40;99.90
37002;DHT22;22913;51.910;8.374;2023-04-01T05:40:15;9.40;99.90
37002;DHT22;22913;51.910;8.374;2023-04-01T05:43:01;9.30;99.90
37002;DHT22;22913;51.910;8.374;2023-04-01T05:45:48;9.30;99.90
37002;DHT22;22913;51.910;8.374;2023-04-01T05:48:34;9.40;99.90
37002;DHT22;22913;51.910;8.374;2023-04-01T05:51:20;9.50;99.90
37002;DHT22;22913;51.910;8.374;2023-04-01T05:54:06;9.50;99.90
37002;DHT22;22913;51.910;8.374;2023-04-01T05:56:51;9.50;99.90
37002;DHT22;22913;51.910;8.374;2023-04-01T05:59:37;9.50;99.90
37002;DHT22;22913;51.910;8.374;2023-04-01T06:02:24;9.50;99.90
37002;DHT22;22913;51.910;8.374;2023-04-01T06:05:15;9.40;99.90
37002;DHT22;22913;51.910;8.374;2023-04-01T06:08:08;9.40;99.90
37002;DHT22;22913;51.910;8.374;2023-04-01T06:11:12;9.50;99.90
37002;DHT22;22913;51.910;8.374;2023-04-01T06:14:11;9.50;99.90
37002;DHT22;22913;51.910;8.374;2023-04-01T06:17:13;9.40;99.90
37002;DHT22;22913;51.910;8.374;2023-04-01T06:20:09;9.40;99.90
37002;DHT22;22913;51.910;8.374;2023-04-01T06:23:22;9.40;99.90
37002;DHT22;22913;51.910;8.374;2023-04-01T06:26:20;9.40;99.90
37002;DHT22;22913;51.910;8.374;2023-04-01T06:29:24;9.40;99.90
37002;DHT22;22913;51.910;8.374;2023-04-01T06:32:27;9.50;99.90
37002;DHT22;22913;51.910;8.374;2023-04-01T06:35:31;9.50;99.90
37002;DHT22;22913;51.910;8.374;2023-04-01T06:38:34;9.60;99.90
37002;DHT22;22913;51.910;8.374;2023-04-01T06:44:41;9.50;99.90
37002;DHT22;22913;51.910;8.374;2023-04-01T06:47:41;9.50;99.90
37002;DHT22;22913;51.910;8.374;2023-04-01T06:50:37;9.50;99.90
37002;DHT22;22913;51.910;8.374;2023-04-01T06:53:32;9.50;99.90
37002;DHT22;22913;51.910;8.374;2023-04-01T06:56:25;9.50;99.90
37002;DHT22;22913;51.910;8.374;2023-04-01T06:59:15;9.50;99.90
37002;DHT22;22913;51.910;8.374;2023-04-01T07:02:05;9.50;99.90
37002;DHT22;22913;51.910;8.374;2023-04-01T07:05:01;9.50;99.90
37002;DHT22;22913;51.910;8.374;2023-04-01T07:07:51;9.60;99.90
37002;DHT22;22913;51.910;8.374;2023-04-01T07:10:43;9.60;99.90
37002;DHT22;22913;51.910;8.374;2023-04-01T07:13:34;9.60;99.90
37002;DHT22;22913;51.910;8.374;2023-04-01T07:16:25;9.70;99.90
37002;DHT22;22913;51.910;8.374;2023-04-01T07:19:18;9.80;99.90
37002;DHT22;22913;51.910;8.374;2023-04-01T07:22:14;9.80;99.90
37002;DHT22;22913;51.910;8.374;2023-04-01T07:25:11;9.90;99.90
37002;DHT22;22913;51.910;8.374;2023-04-01T07:28:02;9.90;99.90
37002;DHT22;22913;51.910;8.374;2023-04-01T07:30:53;10.00;99.90
37002;DHT22;22913;51.910;8.374;2023-04-01T07:33:50;9.90;99.90
37002;DHT22;22913;51.910;8.374;2023-04-01T07:36:43;10.00;99.90
37002;DHT22;22913;51.910;8.374;2023-04-01T07:39:37;10.10;99.90
37002;DHT22;22913;51.910;8.374;2023-04-01T07:42:33;10.00;99.90
37002;DHT22;22913;51.910;8.374;2023-04-01T07:45:24;10.10;99.90
37002;DHT22;22913;51.910;8.374;2023-04-01T07:48:19;10.10;99.90
37002;DHT22;22913;51.910;8.374;2023-04-01T07:51:10;10.20;99.90
37002;DHT22;22913;51.910;8.374;2023-04-01T07:54:03;10.10;99.90
37002;DHT22;22913;51.910;8.374;2023-04-01T07:56:58;10.10;99.90
37002;DHT22;22913;51.910;8.374;2023-04-01T07:59:53;10.20;99.90
37002;DHT22;22913;51.910;8.374;2023-04-01T08:02:56;10.20;99.90
37002;DHT22;22913;51.910;8.374;2023-04-01T08:05:52;10.20;99.90
37002;DHT22;22913;51.910;8.374;2023-04-01T08:08:48;10.20;99.90
37002;DHT22;22913;51.910;8.374;2023-04-01T08:11:45;10.30;99.90
37002;DHT22;22913;51.910;8.374;2023-04-01T08:14:39;10.30;99.90
37002;DHT22;22913;51.910;8.374;2023-04-01T08:17:33;10.30;99.90
37002;DHT22;22913;51.910;8.374;2023-04-01T08:20:28;10.40;99.90
37002;DHT22;22913;51.910;8.374;2023-04-01T08:23:18;10.40;99.90
37002;DHT22;22913;51.910;8.374;2023-04-01T08:26:08;10.50;99.90
37002;DHT22;22913;51.910;8.374;2023-04-01T08:28:59;10.60;99.90
37002;DHT22;22913;51.910;8.374;2023-04-01T08:31:49;10.60;99.90
37002;DHT22;22913;51.910;8.374;2023-04-01T08:34:40;10.60;99.90
37002;DHT22;22913;51.910;8.374;2023-04-01T08:37:31;10.70;99.90
37002;DHT22;22913;51.910;8.374;2023-04-01T08:40:49;10.70;99.90
37002;DHT22;22913;51.910;8.374;2023-04-01T08:43:55;10.90;99.90
37002;DHT22;22913;51.910;8.374;2023-04-01T08:47:08;11.10;99.90
37002;DHT22;22913;51.910;8.374;2023-04-01T08:53:19;11.30;99.90
37002;DHT22;22913;51.910;8.374;2023-04-01T08:56:12;11.30;99.90
37002;DHT22;22913;51.910;8.374;2023-04-01T08:59:13;11.30;99.90
37002;DHT22;22913;51.910;8.374;2023-04-01T09:02:18;11.20;99.90
37002;DHT22;22913;51.910;8.374;2023-04-01T09:05:31;11.20;99.90
37002;DHT22;22913;51.910;8.374;2023-04-01T09:08:31;11.10;99.90
37002;DHT22;22913;51.910;8.374;2023-04-01T09:11:28;11.30;99.90
37002;DHT22;22913;51.910;8.374;2023-04-01T09:14:26;11.30;99.90
37002;DHT22;22913;51.910;8.374;2023-04-01T09:17:36;11.20;99.90
37002;DHT22;22913;51.910;8.374;2023-04-01T09:20:47;11.20;99.90
37002;DHT22;22913;51.910;8.374;2023-04-01T09:23:53;11.30;99.90
37002;DHT22;22913;51.910;8.374;2023-04-01T09:30:18;11.60;99.90
37002;DHT22;22913;51.910;8.374;2023-04-01T09:33:24;11.50;99.90
37002;DHT22;22913;51.910;8.374;2023-04-01T09:36:29;11.70;99.90
37002;DHT22;22913;51.910;8.374;2023-04-01T09:39:35;11.80;99.90
37002;DHT22;22913;51.910;8.374;2023-04-01T09:42:43;11.90;99.90
37002;DHT22;22913;51.910;8.374;2023-04-01T09:45:37;11.80;99.90
37002;DHT22;22913;51.910;8.374;2023-04-01T09:48:50;11.90;99.90
37002;DHT22;22913;51.910;8.374;2023-04-01T09:51:51;11.90;99.90
37002;DHT22;22913;51.910;8.374;2023-04-01T09:54:50;11.90;99.90
37002;DHT22;22913;51.910;8.374;2023-04-01T09:58:08;11.90;99.90
37002;DHT22;22913;51.910;8.374;2023-04-01T10:04:24;11.90;99.90
37002;DHT22;22913;51.910;8.374;2023-04-01T10:07:42;11.80;99.90
37002;DHT22;22913;51.910;8.374;2023-04-01T10:14:17;11.80;99.90
37002;DHT22;22913;51.910;8.374;2023-04-01T10:17:36;11.60;99.90
37002;DHT22;22913;51.910;8.374;2023-04-01T10:27:34;11.60;99.90
37002;DHT22;22913;51.910;8.374;2023-04-01T10:36:54;11.90;99.90
37002;DHT22;22913;51.910;8.374;2023-04-01T10:40:18;11.90;99.90
37002;DHT22;22913;51.910;8.374;2023-04-01T10:43:23;11.90;99.90
37002;DHT22;22913;51.910;8.374;2023-04-01T10:46:36;11.80;99.90
37002;DHT22;22913;51.910;8.374;2023-04-01T10:49:44;11.70;99.90
37002;DHT22;22913;51.910;8.374;2023-04-01T10:52:52;11.70;99.90
37002;DHT22;22913;51.910;8.374;2023-04-01T10:56:05;11.70;99.90
37002;DHT22;22913;51.910;8.374;2023-04-01T11:02:40;11.80;99.90
37002;DHT22;22913;51.910;8.374;2023-04-01T11:05:53;11.90;99.90
37002;DHT22;22913;51.910;8.374;2023-04-01T11:12:51;11.90;99.90
37002;DHT22;22913;51.910;8.374;2023-04-01T11:16:05;11.90;99.90
37002;DHT22;22913;51.910;8.374;2023-04-01T11:22:50;11.90;99.90
37002;DHT22;22913;51.910;8.374;2023-04-01T11:25:50;12.00;99.90
37002;DHT22;22913;51.910;8.374;2023-04-01T11:28:57;12.10;99.90
37002;DHT22;22913;51.910;8.374;2023-04-01T11:31:53;12.10;99.90
37002;DHT22;22913;51.910;8.374;2023-04-01T11:34:55;12.10;99.90
37002;DHT22;22913;51.910;8.374;2023-04-01T11:37:50;12.00;99.90
37002;DHT22;22913;51.910;8.374;2023-04-01T11:40:42;11.90;99.90
37002;DHT22;22913;51.910;8.374;2023-04-01T11:43:37;11.80;99.90
37002;DHT22;22913;51.910;8.374;2023-04-01T11:46:27;11.70;99.90
37002;DHT22;22913;51.910;8.374;2023-04-01T11:49:29;11.90;99.90
37002;DHT22;22913;51.910;8.374;2023-04-01T11:52:25;11.90;99.90
37002;DHT22;22913;51.910;8.374;2023-04-01T11:55:24;11.90;99.90
37002;DHT22;22913;51.910;8.374;2023-04-01T11:58:21;12.00;99.90
37002;DHT22;22913;51.910;8.374;2023-04-01T12:01:29;11.90;99.90
37002;DHT22;22913;51.910;8.374;2023-04-01T12:04:50;12.00;99.90
37002;DHT22;22913;51.910;8.374;2023-04-01T12:07:53;12.00;99.90
37002;DHT22;22913;51.910;8.374;2023-04-01T12:10:46;12.00;99.90
37002;DHT22;22913;51.910;8.374;2023-04-01T12:13:40;12.00;99.90
37002;DHT22;22913;51.910;8.374;2023-04-01T12:16:58;12.10;99.90
37002;DHT22;22913;51.910;8.374;2023-04-01T12:19:51;12.00;99.90
37002;DHT22;22913;51.910;8.374;2023-04-01T12:22:46;12.00;99.90
37002;DHT22;22913;51.910;8.374;2023-04-01T12:29:04;12.20;99.90
37002;DHT22;22913;51.910;8.374;2023-04-01T12:31:58;12.20;99.90
37002;DHT22;22913;51.910;8.374;2023-04-01T12:35:16;12.20;99.90
37002;DHT22;22913;51.910;8.374;2023-04-01T12:38:14;12.10;99.90
37002;DHT22;22913;51.910;8.374;2023-04-01T12:41:09;12.00;99.90
37002;DHT22;22913;51.910;8.374;2023-04-01T12:44:21;11.90;99.90
37002;DHT22;22913;51.910;8.374;2023-04-01T12:47:38;11.90;99.90
37002;DHT22;22913;51.910;8.374;2023-04-01T12:50:44;11.90;99.90
37002;DHT22;22913;51.910;8.374;2023-04-01T12:53:50;11.90;99.90
37002;DHT22;22913;51.910;8.374;2023-04-01T12:56:46;12.00;99.90
37002;DHT22;22913;51.910;8.374;2023-04-01T12:59:52;12.10;99.90
37002;DHT22;22913;51.910;8.374;2023-04-01T13:02:58;12.10;99.90
37002;DHT22;22913;51.910;8.374;2023-04-01T13:06:13;12.20;99.90
37002;DHT22;22913;51.910;8.374;2023-04-01T13:09:11;12.20;99.90
37002;DHT22;22913;51.910;8.374;2023-04-01T14:03:54;12.70;99.90
37002;DHT22;22913;51.910;8.374;2023-04-01T14:06:56;12.70;99.90
37002;DHT22;22913;51.910;8.374;2023-04-01T14:09:50;12.70;99.90
37002;DHT22;22913;51.910;8.374;2023-04-01T14:12:42;12.80;99.90
37002;DHT22;22913;51.910;8.374;2023-04-01T14:15:37;12.80;99.90
37002;DHT22;22913;51.910;8.374;2023-04-01T14:18:36;12.80;99.90
37002;DHT22;22913;51.910;8.374;2023-04-01T14:21:33;12.80;99.90
37002;DHT22;22913;51.910;8.374;2023-04-01T14:24:35;12.80;99.90
37002;DHT22;22913;51.910;8.374;2023-04-01T14:27:41;12.70;99.90
37002;DHT22;22913;51.910;8.374;2023-04-01T14:30:38;12.80;99.90
37002;DHT22;22913;51.910;8.374;2023-04-01T14:33:34;12.70;99.90
37002;DHT22;22913;51.910;8.374;2023-04-01T14:36:39;12.70;99.90
37002;DHT22;22913;51.910;8.374;2023-04-01T14:39:39;12.70;99.90
37002;DHT22;22913;51.910;8.374;2023-04-01T14:46:27;12.90;99.90
37002;DHT22;22913;51.910;8.374;2023-04-01T14:49:20;13.00;99.90
37002;DHT22;22913;51.910;8.374;2023-04-01T14:52:14;13.00;99.90
37002;DHT22;22913;51.910;8.374;2023-04-01T14:55:01;12.90;99.90
37002;DHT22;22913;51.910;8.374;2023-04-01T14:57:59;12.80;99.90
37002;DHT22;22913;51.910;8.374;2023-04-01T15:00:54;12.80;99.90
37002;DHT22;22913;51.910;8.374;2023-04-01T15:03:51;12.70;99.90
37002;DHT22;22913;51.910;8.374;2023-04-01T15:07:02;12.70;99.90
37002;DHT22;22913;51.910;8.374;2023-04-01T15:09:59;12.70;99.90
37002;DHT22;22913;51.910;8.374;2023-04-01T15:12:54;12.70;99.90
37002;DHT22;22913;51.910;8.374;2023-04-01T15:15:57;12.80;99.90
37002;DHT22;22913;51.910;8.374;2023-04-01T15:18:53;12.60;99.90
37002;DHT22;22913;51.910;8.374;2023-04-01T15:22:06;12.60;99.90
37002;DHT22;22913;51.910;8.374;2023-04-01T15:25:18;12.60;99.90
37002;DHT22;22913;51.910;8.374;2023-04-01T15:28:13;12.60;99.90
37002;DHT22;22913;51.910;8.374;2023-04-01T15:31:04;12.60;99.90
37002;DHT22;22913;51.910;8.374;2023-04-01T15:34:17;12.60;99.90
37002;DHT22;22913;51.910;8.374;2023-04-01T15:37:11;12.60;99.90
37002;DHT22;22913;51.910;8.374;2023-04-01T15:40:05;12.60;99.90
37002;DHT22;22913;51.910;8.374;2023-04-01T15:43:03;12.60;99.90
37002;DHT22;22913;51.910;8.374;2023-04-01T15:45:58;12.60;99.90
37002;DHT22;22913;51.910;8.374;2023-04-01T15:49:07;12.50;99.90
37002;DHT22;22913;51.910;8.374;2023-04-01T15:52:03;12.60;99.90
37002;DHT22;22913;51.910;8.374;2023-04-01T15:55:22;12.60;99.90
37002;DHT22;22913;51.910;8.374;2023-04-01T15:58:32;12.60;99.90
37002;DHT22;22913;51.910;8.374;2023-04-01T16:01:30;12.60;99.90
37002;DHT22;22913;51.910;8.374;2023-04-01T16:04:34;12.50;99.90
37002;DHT22;22913;51.910;8.374;2023-04-01T16:07:41;12.50;99.90
37002;DHT22;22913;51.910;8.374;2023-04-01T16:10:44;12.50;99.90
37002;DHT22;22913;51.910;8.374;2023-04-01T16:13:44;12.50;99.90
37002;DHT22;22913;51.910;8.374;2023-04-01T16:16:44;12.50;99.90
37002;DHT22;22913;51.910;8.374;2023-04-01T16:19:51;12.40;99.90
37002;DHT22;22913;51.910;8.374;2023-04-01T16:22:40;12.40;99.90
37002;DHT22;22913;51.910;8.374;2023-04-01T16:25:33;12.20;99.90
37002;DHT22;22913;51.910;8.374;2023-04-01T16:28:27;12.10;99.90
37002;DHT22;22913;51.910;8.374;2023-04-01T16:31:16;12.00;99.90
37002;DHT22;22913;51.910;8.374;2023-04-01T16:34:16;12.00;99.90
37002;DHT22;22913;51.910;8.374;2023-04-01T16:37:07;12.00;99.90
37002;DHT22;22913;51.910;8.374;2023-04-01T16:40:09;12.00;99.90
37002;DHT22;22913;51.910;8.374;2023-04-01T16:43:06;12.00;99.90
37002;DHT22;22913;51.910;8.374;2023-04-01T16:49:24;11.90;99.90
37002;DHT22;22913;51.910;8.374;2023-04-01T16:52:16;11.90;99.90
37002;DHT22;22913;51.910;8.374;2023-04-01T16:55:08;11.90;99.90
37002;DHT22;22913;51.910;8.374;2023-04-01T16:57:59;11.90;99.90
37002;DHT22;22913;51.910;8.374;2023-04-01T17:00:49;11.90;99.90
37002;DHT22;22913;51.910;8.374;2023-04-01T17:03:39;11.90;99.90
37002;DHT22;22913;51.910;8.374;2023-04-01T17:06:33;11.80;99.90
37002;DHT22;22913;51.910;8.374;2023-04-01T17:09:33;11.80;99.90
37002;DHT22;22913;51.910;8.374;2023-04-01T17:12:28;11.80;99.90
37002;DHT22;22913;51.910;8.374;2023-04-01T17:15:20;11.80;99.90
37002;DHT22;22913;51.910;8.374;2023-04-01T17:18:11;11.80;99.90
37002;DHT22;22913;51.910;8.374;2023-04-01T17:21:05;11.80;99.90
37002;DHT22;22913;51.910;8.374;2023-04-01T17:24:00;11.80;99.90
37002;DHT22;22913;51.910;8.374;2023-04-01T17:26:53;11.70;99.90
37002;DHT22;22913;51.910;8.374;2023-04-01T17:30:09;11.70;99.90
37002;DHT22;22913;51.910;8.374;2023-04-01T17:36:29;11.80;99.90
37002;DHT22;22913;51.910;8.374;2023-04-01T17:39:33;11.70;99.90
37002;DHT22;22913;51.910;8.374;2023-04-01T17:42:28;11.60;99.90
37002;DHT22;22913;51.910;8.374;2023-04-01T17:45:24;11.50;99.90
37002;DHT22;22913;51.910;8.374;2023-04-01T17:48:21;11.50;99.90
37002;DHT22;22913;51.910;8.374;2023-04-01T17:51:21;11.40;99.90
37002;DHT22;22913;51.910;8.374;2023-04-01T17:54:20;11.40;99.90
37002;DHT22;22913;51.910;8.374;2023-04-01T17:57:28;11.40;99.90
37002;DHT22;22913;51.910;8.374;2023-04-01T18:00:22;11.30;99.90
37002;DHT22;22913;51.910;8.374;2023-04-01T18:03:20;11.30;99.90
37002;DHT22;22913;51.910;8.374;2023-04-01T18:06:12;11.30;99.90
37002;DHT22;22913;51.910;8.374;2023-04-01T18:09:08;11.20;99.90
37002;DHT22;22913;51.910;8.374;2023-04-01T18:12:07;11.20;99.90
37002;DHT22;22913;51.910;8.374;2023-04-01T18:15:08;11.20;99.90
37002;DHT22;22913;51.910;8.374;2023-04-01T18:18:19;11.10;99.90
37002;DHT22;22913;51.910;8.374;2023-04-01T18:21:15;11.20;99.90
37002;DHT22;22913;51.910;8.374;2023-04-01T18:24:14;11.10;99.90
37002;DHT22;22913;51.910;8.374;2023-04-01T18:27:03;11.20;99.90
37002;DHT22;22913;51.910;8.374;2023-04-01T18:29:52;11.10;99.90
37002;DHT22;22913;51.910;8.374;2023-04-01T18:32:45;10.90;99.90
37002;DHT22;22913;51.910;8.374;2023-04-01T18:35:46;10.80;99.90
37002;DHT22;22913;51.910;8.374;2023-04-01T18:38:35;10.70;99.90
37002;DHT22;22913;51.910;8.374;2023-04-01T18:41:32;10.60;99.90
37002;DHT22;22913;51.910;8.374;2023-04-01T18:44:27;10.50;99.90
37002;DHT22;22913;51.910;8.374;2023-04-01T18:47:25;10.50;99.90
37002;DHT22;22913;51.910;8.374;2023-04-01T18:50:21;10.50;99.90
37002;DHT22;22913;51.910;8.374;2023-04-01T18:53:15;10.40;99.90
37002;DHT22;22913;51.910;8.374;2023-04-01T18:56:04;10.30;99.90
37002;DHT22;22913;51.910;8.374;2023-04-01T18:58:58;10.30;99.90
37002;DHT22;22913;51.910;8.374;2023-04-01T19:01:52;10.20;99.90
37002;DHT22;22913;51.910;8.374;2023-04-01T19:04:44;10.10;99.90
37002;DHT22;22913;51.910;8.374;2023-04-01T19:07:43;10.10;99.90
37002;DHT22;22913;51.910;8.374;2023-04-01T19:10:37;10.00;99.90
37002;DHT22;22913;51.910;8.374;2023-04-01T19:13:29;10.00;99.90
37002;DHT22;22913;51.910;8.374;2023-04-01T19:16:28;10.00;99.90
37002;DHT22;22913;51.910;8.374;2023-04-01T19:19:39;9.90;99.90
37002;DHT22;22913;51.910;8.374;2023-04-01T19:22:45;9.80;99.90
37002;DHT22;22913;51.910;8.374;2023-04-01T19:25:37;9.80;99.90
37002;DHT22;22913;51.910;8.374;2023-04-01T19:28:31;9.80;99.90
37002;DHT22;22913;51.910;8.374;2023-04-01T19:31:33;9.70;99.90
37002;DHT22;22913;51.910;8.374;2023-04-01T19:34:26;9.60;99.90
37002;DHT22;22913;51.910;8.374;2023-04-01T19:37:23;9.60;99.90
37002;DHT22;22913;51.910;8.374;2023-04-01T19:40:23;9.50;99.90
37002;DHT22;22913;51.910;8.374;2023-04-01T19:43:30;9.40;99.90
37002;DHT22;22913;51.910;8.374;2023-04-01T19:46:25;9.40;99.90
37002;DHT22;22913;51.910;8.374;2023-04-01T19:49:21;9.30;99.90
37002;DHT22;22913;51.910;8.374;2023-04-01T19:52:13;9.30;99.90
37002;DHT22;22913;51.910;8.374;2023-04-01T19:55:06;9.30;99.90
37002;DHT22;22913;51.910;8.374;2023-04-01T19:58:00;9.20;99.90
37002;DHT22;22913;51.910;8.374;2023-04-01T20:00:51;9.20;99.90
37002;DHT22;22913;51.910;8.374;2023-04-01T20:03:43;9.20;99.90
37002;DHT22;22913;51.910;8.374;2023-04-01T20:06:34;9.10;99.90
37002;DHT22;22913;51.910;8.374;2023-04-01T20:09:47;9.00;99.90
37002;DHT22;22913;51.910;8.374;2023-04-01T20:12:42;9.00;99.90
37002;DHT22;22913;51.910;8.374;2023-04-01T20:15:34;8.90;99.90
37002;DHT22;22913;51.910;8.374;2023-04-01T20:18:23;8.90;99.90
37002;DHT22;22913;51.910;8.374;2023-04-01T20:21:31;8.90;99.90
37002;DHT22;22913;51.910;8.374;2023-04-01T20:24:22;8.80;99.90